Create Tblcommutelog Verified Points Advance Search
| # | Trip ID | Id Commuter | Trip Date | Trip Num | Current Lat | Current Lng | Delta Distance | Current Time | Activity | Activity Confidence | Current Speed | |
|---|---|---|---|---|---|---|---|---|---|---|---|---|
| 69841 | 251220_790799_16659868_1834 | 790799 | (not set) | (not set) | 38.963165965658 | -76.859448208804 | 11.0694 | 2025-12-20 19:09:44 | in_vehicle | 100 | 6.4552468997827 | |
| 69842 | 251220_790799_16659868_1834 | 790799 | (not set) | (not set) | 38.970728257329 | -76.849836750783 | 11.8133 | 2025-12-20 19:10:51 | in_vehicle | 100 | 6.4507765071929 | |
| 69843 | 251220_790799_16659868_1834 | 790799 | (not set) | (not set) | 38.975379568889 | -76.840784299361 | 12.3969 | 2025-12-20 19:12:35 | in_vehicle | 100 | 7.2688583511404 | |
| 69844 | 251220_790799_16659868_1834 | 790799 | (not set) | (not set) | 38.979598420026 | -76.833023450459 | 12.9065 | 2025-12-20 19:13:46 | in_vehicle | 100 | 7.9081244914928 | |
| 69845 | 251220_790799_16659868_1834 | 790799 | (not set) | (not set) | 38.987677076146 | -76.819035932662 | 13.8451 | 2025-12-20 19:15:06 | in_vehicle | 100 | 5.4404677818806 | |
| 69846 | 251220_790799_16659868_1834 | 790799 | (not set) | (not set) | 38.990548385752 | -76.825688601133 | 14.2989 | 2025-12-20 19:18:13 | in_vehicle | 100 | 6.9827532253883 | |
| 69847 | 251220_790799_16659868_1834 | 790799 | (not set) | (not set) | 38.991143815941 | -76.838635281083 | 15.0014 | 2025-12-20 19:20:06 | in_vehicle | 100 | 7.1615689289833 | |
| 69848 | 251220_790799_16659868_1834 | 790799 | (not set) | (not set) | 38.990831866953 | -76.851583008569 | 15.7198 | 2025-12-20 19:21:10 | in_vehicle | 100 | 9.2447718758661 | |
| 69849 | 251221_780169_16483285_2211 | 780169 | (not set) | (not set) | 38.804183962895 | -77.054056980858 | 0 | 2025-12-21 22:11:53 | unknown | 100 | -0.44703925898772 | |
| 69850 | 251222_789579_16464305_0549 | 789579 | (not set) | (not set) | 39.05654134243 | -77.550378136645 | 2.2876 | 2025-12-22 06:00:00 | in_vehicle | 100 | 9.3475909054333 | |
| 69851 | 251222_789579_16464305_0549 | 789579 | (not set) | (not set) | 39.033364932227 | -77.525270095769 | 5.196 | 2025-12-22 06:04:33 | in_vehicle | 100 | 9.7633374162919 | |
| 69852 | 251222_789579_16464305_0549 | 789579 | (not set) | (not set) | 39.00863093094 | -77.500958522216 | 7.8312 | 2025-12-22 06:10:12 | in_vehicle | 100 | 5.1320106931791 | |
| 69853 | 251222_789579_16464305_0549 | 789579 | (not set) | (not set) | 39.00528089098 | -77.492560151821 | 8.4257 | 2025-12-22 06:13:08 | in_vehicle | 100 | -0.44703925898772 | |
| 69854 | 251222_755334_16501377_0624 | 755334 | (not set) | (not set) | 38.9513383 | -77.4004947 | 0 | 2025-12-22 06:24:30 | still | 100 | 7.5862562250217 | |
| 69855 | 251222_789839_16472497_0620 | 789839 | (not set) | (not set) | 38.427324284658 | -77.419319157464 | 0.656 | 2025-12-22 06:27:38 | in_vehicle | 100 | 12.436632185038 | |
| 69856 | 251222_789839_16472497_0620 | 789839 | (not set) | (not set) | 38.464888358159 | -77.407821249664 | 3.3994 | 2025-12-22 06:30:02 | in_vehicle | 100 | 13.84480585085 | |
| 69857 | 251222_783292_6437402_0631 | 783292 | (not set) | (not set) | 38.885277542322 | -77.222529994396 | 0 | 2025-12-22 06:31:24 | unknown | 100 | 10.711060645346 | |
| 69858 | 251222_789839_16472497_0620 | 789839 | (not set) | (not set) | 38.487687867259 | -77.390011016312 | 5.2477 | 2025-12-22 06:31:38 | in_vehicle | 100 | 13.500585621429 | |
| 69859 | 251222_789839_16472497_0620 | 789839 | (not set) | (not set) | 38.495780257891 | -77.38299793649 | 5.9233 | 2025-12-22 06:32:15 | in_vehicle | 100 | 12.914964192155 | |
| 69860 | 251222_788475_16428771_0631 | 788475 | (not set) | (not set) | 38.848404812736 | -76.953205768179 | 0.8919 | 2025-12-22 06:33:06 | in_vehicle | 100 | 7.210743247472 |